sensor_id;sensor_type;location;lat;lon;timestamp;P1;durP1;ratioP1;P2;durP2;ratioP2
54665;SDS011;40566;50.006;36.180;2023-04-15T00:04:11;6.95;;;2.95;;
54665;SDS011;40566;50.006;36.180;2023-04-15T00:09:12;5.90;;;2.33;;
54665;SDS011;40566;50.006;36.180;2023-04-15T00:14:13;12.07;;;2.67;;
54665;SDS011;40566;50.006;36.180;2023-04-15T00:19:13;11.45;;;3.42;;
54665;SDS011;40566;50.006;36.180;2023-04-15T00:24:14;8.85;;;1.83;;
54665;SDS011;40566;50.006;36.180;2023-04-15T00:29:14;5.82;;;2.22;;
54665;SDS011;40566;50.006;36.180;2023-04-15T00:34:15;5.82;;;2.15;;
54665;SDS011;40566;50.006;36.180;2023-04-15T00:39:16;9.38;;;2.92;;
54665;SDS011;40566;50.006;36.180;2023-04-15T00:44:16;7.90;;;2.38;;
54665;SDS011;40566;50.006;36.180;2023-04-15T00:49:18;10.10;;;2.75;;
54665;SDS011;40566;50.006;36.180;2023-04-15T00:54:18;8.73;;;3.30;;
54665;SDS011;40566;50.006;36.180;2023-04-15T00:59:19;8.23;;;2.45;;
54665;SDS011;40566;50.006;36.180;2023-04-15T01:04:20;10.48;;;2.75;;
54665;SDS011;40566;50.006;36.180;2023-04-15T01:09:21;6.30;;;2.10;;
54665;SDS011;40566;50.006;36.180;2023-04-15T01:14:22;6.65;;;2.83;;
54665;SDS011;40566;50.006;36.180;2023-04-15T01:19:22;5.50;;;1.90;;
54665;SDS011;40566;50.006;36.180;2023-04-15T01:24:23;7.40;;;2.10;;
54665;SDS011;40566;50.006;36.180;2023-04-15T01:29:27;5.55;;;2.20;;
54665;SDS011;40566;50.006;36.180;2023-04-15T01:34:28;3.20;;;1.65;;
54665;SDS011;40566;50.006;36.180;2023-04-15T01:39:29;6.28;;;2.17;;
54665;SDS011;40566;50.006;36.180;2023-04-15T01:44:29;6.15;;;2.00;;
54665;SDS011;40566;50.006;36.180;2023-04-15T01:49:30;10.07;;;2.20;;
54665;SDS011;40566;50.006;36.180;2023-04-15T01:54:31;5.03;;;1.85;;
54665;SDS011;40566;50.006;36.180;2023-04-15T01:59:31;5.05;;;2.00;;
54665;SDS011;40566;50.006;36.180;2023-04-15T02:04:32;4.68;;;1.88;;
54665;SDS011;40566;50.006;36.180;2023-04-15T02:09:33;5.90;;;2.42;;
54665;SDS011;40566;50.006;36.180;2023-04-15T02:14:33;7.40;;;2.42;;
54665;SDS011;40566;50.006;36.180;2023-04-15T02:19:34;9.90;;;2.47;;
54665;SDS011;40566;50.006;36.180;2023-04-15T02:24:35;6.95;;;2.40;;
54665;SDS011;40566;50.006;36.180;2023-04-15T02:29:36;4.78;;;2.10;;
54665;SDS011;40566;50.006;36.180;2023-04-15T02:34:37;21.17;;;2.60;;
54665;SDS011;40566;50.006;36.180;2023-04-15T02:39:40;10.90;;;3.40;;
54665;SDS011;40566;50.006;36.180;2023-04-15T02:44:41;15.80;;;2.03;;
54665;SDS011;40566;50.006;36.180;2023-04-15T02:49:42;5.97;;;2.70;;
54665;SDS011;40566;50.006;36.180;2023-04-15T02:54:43;4.18;;;1.92;;
54665;SDS011;40566;50.006;36.180;2023-04-15T02:59:43;5.13;;;2.20;;
54665;SDS011;40566;50.006;36.180;2023-04-15T03:04:44;8.10;;;2.22;;
54665;SDS011;40566;50.006;36.180;2023-04-15T03:09:45;6.00;;;2.22;;
54665;SDS011;40566;50.006;36.180;2023-04-15T03:14:46;13.25;;;2.47;;
54665;SDS011;40566;50.006;36.180;2023-04-15T03:19:47;4.35;;;2.03;;
54665;SDS011;40566;50.006;36.180;2023-04-15T03:24:48;6.35;;;2.20;;
54665;SDS011;40566;50.006;36.180;2023-04-15T03:29:48;5.88;;;2.35;;
54665;SDS011;40566;50.006;36.180;2023-04-15T03:34:49;6.93;;;2.17;;
54665;SDS011;40566;50.006;36.180;2023-04-15T03:39:49;9.82;;;3.15;;
54665;SDS011;40566;50.006;36.180;2023-04-15T03:44:50;8.95;;;2.67;;
54665;SDS011;40566;50.006;36.180;2023-04-15T03:49:51;11.65;;;2.50;;
54665;SDS011;40566;50.006;36.180;2023-04-15T03:54:51;6.95;;;2.75;;
54665;SDS011;40566;50.006;36.180;2023-04-15T03:59:52;11.30;;;3.08;;
54665;SDS011;40566;50.006;36.180;2023-04-15T04:04:54;6.35;;;2.28;;
54665;SDS011;40566;50.006;36.180;2023-04-15T04:09:56;11.88;;;3.45;;
54665;SDS011;40566;50.006;36.180;2023-04-15T04:14:57;6.95;;;2.67;;
54665;SDS011;40566;50.006;36.180;2023-04-15T04:19:57;7.55;;;3.30;;
54665;SDS011;40566;50.006;36.180;2023-04-15T04:24:58;9.93;;;2.65;;
54665;SDS011;40566;50.006;36.180;2023-04-15T04:29:59;8.43;;;2.65;;
54665;SDS011;40566;50.006;36.180;2023-04-15T04:35:00;6.53;;;2.78;;
54665;SDS011;40566;50.006;36.180;2023-04-15T04:40:01;5.70;;;1.90;;
54665;SDS011;40566;50.006;36.180;2023-04-15T04:45:02;5.15;;;2.45;;
54665;SDS011;40566;50.006;36.180;2023-04-15T04:50:02;11.50;;;3.80;;
54665;SDS011;40566;50.006;36.180;2023-04-15T04:55:03;4.90;;;2.33;;
54665;SDS011;40566;50.006;36.180;2023-04-15T05:00:05;4.85;;;2.20;;
54665;SDS011;40566;50.006;36.180;2023-04-15T05:05:08;8.73;;;3.03;;
54665;SDS011;40566;50.006;36.180;2023-04-15T05:10:09;6.25;;;2.28;;
54665;SDS011;40566;50.006;36.180;2023-04-15T05:15:10;5.75;;;2.38;;
54665;SDS011;40566;50.006;36.180;2023-04-15T05:20:11;9.02;;;3.85;;
54665;SDS011;40566;50.006;36.180;2023-04-15T05:25:11;8.07;;;3.65;;
54665;SDS011;40566;50.006;36.180;2023-04-15T05:30:13;7.55;;;2.67;;
54665;SDS011;40566;50.006;36.180;2023-04-15T05:35:13;6.90;;;2.55;;
54665;SDS011;40566;50.006;36.180;2023-04-15T05:40:14;9.55;;;3.50;;
54665;SDS011;40566;50.006;36.180;2023-04-15T05:45:15;6.63;;;2.55;;
54665;SDS011;40566;50.006;36.180;2023-04-15T05:50:15;8.45;;;2.25;;
54665;SDS011;40566;50.006;36.180;2023-04-15T05:55:16;4.93;;;2.03;;
54665;SDS011;40566;50.006;36.180;2023-04-15T06:00:17;8.35;;;2.80;;
54665;SDS011;40566;50.006;36.180;2023-04-15T06:05:17;5.95;;;2.60;;
54665;SDS011;40566;50.006;36.180;2023-04-15T06:10:18;7.82;;;2.83;;
54665;SDS011;40566;50.006;36.180;2023-04-15T06:15:19;9.25;;;3.03;;
54665;SDS011;40566;50.006;36.180;2023-04-15T06:20:19;3.92;;;1.48;;
54665;SDS011;40566;50.006;36.180;2023-04-15T06:25:20;6.20;;;1.98;;
54665;SDS011;40566;50.006;36.180;2023-04-15T06:30:20;11.93;;;3.15;;
54665;SDS011;40566;50.006;36.180;2023-04-15T06:35:21;8.00;;;2.95;;
54665;SDS011;40566;50.006;36.180;2023-04-15T06:40:22;7.40;;;2.22;;
54665;SDS011;40566;50.006;36.180;2023-04-15T06:45:22;4.05;;;1.98;;
54665;SDS011;40566;50.006;36.180;2023-04-15T06:50:23;5.97;;;2.00;;
54665;SDS011;40566;50.006;36.180;2023-04-15T06:55:24;5.47;;;2.00;;
54665;SDS011;40566;50.006;36.180;2023-04-15T07:00:25;8.32;;;3.15;;
54665;SDS011;40566;50.006;36.180;2023-04-15T07:05:28;8.07;;;2.90;;
54665;SDS011;40566;50.006;36.180;2023-04-15T07:10:30;10.00;;;2.83;;
54665;SDS011;40566;50.006;36.180;2023-04-15T07:15:30;7.85;;;2.28;;
54665;SDS011;40566;50.006;36.180;2023-04-15T07:20:31;10.50;;;3.00;;
54665;SDS011;40566;50.006;36.180;2023-04-15T07:25:32;10.40;;;2.80;;
54665;SDS011;40566;50.006;36.180;2023-04-15T07:30:33;10.45;;;3.53;;
54665;SDS011;40566;50.006;36.180;2023-04-15T07:35:33;10.52;;;2.90;;
54665;SDS011;40566;50.006;36.180;2023-04-15T07:40:34;7.80;;;3.03;;
54665;SDS011;40566;50.006;36.180;2023-04-15T07:45:35;10.35;;;2.67;;
54665;SDS011;40566;50.006;36.180;2023-04-15T07:50:35;9.20;;;3.00;;
54665;SDS011;40566;50.006;36.180;2023-04-15T07:55:36;7.97;;;2.45;;
54665;SDS011;40566;50.006;36.180;2023-04-15T08:00:37;6.75;;;2.90;;
54665;SDS011;40566;50.006;36.180;2023-04-15T08:05:37;10.02;;;2.70;;
54665;SDS011;40566;50.006;36.180;2023-04-15T08:10:38;6.25;;;2.78;;
54665;SDS011;40566;50.006;36.180;2023-04-15T08:15:39;8.55;;;2.83;;
54665;SDS011;40566;50.006;36.180;2023-04-15T08:20:40;8.68;;;2.80;;
54665;SDS011;40566;50.006;36.180;2023-04-15T08:25:40;10.82;;;3.63;;
54665;SDS011;40566;50.006;36.180;2023-04-15T08:30:41;7.43;;;2.67;;
54665;SDS011;40566;50.006;36.180;2023-04-15T08:35:42;10.25;;;3.80;;
54665;SDS011;40566;50.006;36.180;2023-04-15T08:40:43;10.10;;;2.88;;
54665;SDS011;40566;50.006;36.180;2023-04-15T08:45:45;11.43;;;2.85;;
54665;SDS011;40566;50.006;36.180;2023-04-15T08:50:47;7.88;;;2.65;;
54665;SDS011;40566;50.006;36.180;2023-04-15T08:55:50;10.95;;;2.88;;
54665;SDS011;40566;50.006;36.180;2023-04-15T09:00:51;9.13;;;2.97;;
54665;SDS011;40566;50.006;36.180;2023-04-15T09:05:52;10.10;;;2.65;;
54665;SDS011;40566;50.006;36.180;2023-04-15T09:10:53;9.25;;;2.72;;
54665;SDS011;40566;50.006;36.180;2023-04-15T09:15:54;6.82;;;2.40;;
54665;SDS011;40566;50.006;36.180;2023-04-15T09:21:02;10.60;;;2.72;;
54665;SDS011;40566;50.006;36.180;2023-04-15T09:26:05;7.13;;;2.50;;
54665;SDS011;40566;50.006;36.180;2023-04-15T09:31:06;9.30;;;2.70;;
54665;SDS011;40566;50.006;36.180;2023-04-15T09:36:06;15.35;;;5.22;;
54665;SDS011;40566;50.006;36.180;2023-04-15T09:41:15;17.27;;;6.13;;
54665;SDS011;40566;50.006;36.180;2023-04-15T09:46:18;11.55;;;4.50;;
54665;SDS011;40566;50.006;36.180;2023-04-15T09:51:19;6.28;;;2.13;;
54665;SDS011;40566;50.006;36.180;2023-04-15T10:11:29;9.15;;;2.10;;
54665;SDS011;40566;50.006;36.180;2023-04-15T10:16:31;8.20;;;2.53;;
54665;SDS011;40566;50.006;36.180;2023-04-15T10:21:32;9.60;;;2.30;;
54665;SDS011;40566;50.006;36.180;2023-04-15T10:26:33;8.73;;;2.35;;
54665;SDS011;40566;50.006;36.180;2023-04-15T10:31:34;7.07;;;2.25;;
54665;SDS011;40566;50.006;36.180;2023-04-15T10:36:37;7.38;;;2.90;;
54665;SDS011;40566;50.006;36.180;2023-04-15T10:41:38;11.10;;;2.70;;
54665;SDS011;40566;50.006;36.180;2023-04-15T10:46:43;8.88;;;2.60;;
54665;SDS011;40566;50.006;36.180;2023-04-15T10:51:45;7.28;;;2.47;;
54665;SDS011;40566;50.006;36.180;2023-04-15T11:02:06;7.82;;;2.70;;
54665;SDS011;40566;50.006;36.180;2023-04-15T11:07:07;6.85;;;2.60;;
54665;SDS011;40566;50.006;36.180;2023-04-15T11:12:09;6.32;;;2.50;;
54665;SDS011;40566;50.006;36.180;2023-04-15T11:17:10;8.73;;;2.58;;
54665;SDS011;40566;50.006;36.180;2023-04-15T11:22:10;8.35;;;2.50;;
54665;SDS011;40566;50.006;36.180;2023-04-15T11:27:21;15.38;;;4.60;;
54665;SDS011;40566;50.006;36.180;2023-04-15T11:32:22;12.38;;;4.28;;
54665;SDS011;40566;50.006;36.180;2023-04-15T11:37:27;11.20;;;3.15;;
54665;SDS011;40566;50.006;36.180;2023-04-15T11:42:29;10.65;;;2.85;;
54665;SDS011;40566;50.006;36.180;2023-04-15T11:47:29;9.63;;;3.55;;
54665;SDS011;40566;50.006;36.180;2023-04-15T11:52:30;8.32;;;2.70;;
54665;SDS011;40566;50.006;36.180;2023-04-15T11:57:31;12.23;;;3.25;;
54665;SDS011;40566;50.006;36.180;2023-04-15T12:02:31;11.48;;;3.30;;
54665;SDS011;40566;50.006;36.180;2023-04-15T12:07:32;9.63;;;3.00;;
54665;SDS011;40566;50.006;36.180;2023-04-15T12:12:32;9.60;;;3.15;;
54665;SDS011;40566;50.006;36.180;2023-04-15T12:17:33;7.25;;;3.15;;
54665;SDS011;40566;50.006;36.180;2023-04-15T12:22:36;10.98;;;3.15;;
54665;SDS011;40566;50.006;36.180;2023-04-15T12:27:37;9.57;;;3.13;;
54665;SDS011;40566;50.006;36.180;2023-04-15T12:32:37;11.90;;;3.67;;
54665;SDS011;40566;50.006;36.180;2023-04-15T12:37:38;10.70;;;3.13;;
54665;SDS011;40566;50.006;36.180;2023-04-15T12:42:39;9.98;;;3.65;;
54665;SDS011;40566;50.006;36.180;2023-04-15T12:47:39;9.77;;;3.22;;
54665;SDS011;40566;50.006;36.180;2023-04-15T12:52:40;13.75;;;3.72;;
54665;SDS011;40566;50.006;36.180;2023-04-15T12:57:41;13.20;;;3.42;;
54665;SDS011;40566;50.006;36.180;2023-04-15T13:02:42;13.65;;;3.80;;
54665;SDS011;40566;50.006;36.180;2023-04-15T13:07:43;14.82;;;3.63;;
54665;SDS011;40566;50.006;36.180;2023-04-15T13:12:43;7.70;;;3.40;;
54665;SDS011;40566;50.006;36.180;2023-04-15T13:17:46;9.55;;;3.60;;
54665;SDS011;40566;50.006;36.180;2023-04-15T13:22:47;8.23;;;3.83;;
54665;SDS011;40566;50.006;36.180;2023-04-15T13:27:48;14.90;;;4.13;;
54665;SDS011;40566;50.006;36.180;2023-04-15T13:32:49;8.63;;;3.30;;
54665;SDS011;40566;50.006;36.180;2023-04-15T13:37:50;9.32;;;3.47;;
54665;SDS011;40566;50.006;36.180;2023-04-15T13:42:52;8.85;;;3.63;;
54665;SDS011;40566;50.006;36.180;2023-04-15T13:47:54;16.60;;;3.83;;
54665;SDS011;40566;50.006;36.180;2023-04-15T13:52:55;10.52;;;3.78;;
54665;SDS011;40566;50.006;36.180;2023-04-15T13:57:55;7.45;;;3.60;;
54665;SDS011;40566;50.006;36.180;2023-04-15T14:02:56;16.25;;;3.97;;
54665;SDS011;40566;50.006;36.180;2023-04-15T14:07:58;11.27;;;3.85;;
54665;SDS011;40566;50.006;36.180;2023-04-15T14:12:58;10.18;;;3.67;;
54665;SDS011;40566;50.006;36.180;2023-04-15T14:17:59;16.45;;;4.03;;
54665;SDS011;40566;50.006;36.180;2023-04-15T14:23:01;8.40;;;3.30;;
54665;SDS011;40566;50.006;36.180;2023-04-15T14:28:01;8.38;;;3.60;;
54665;SDS011;40566;50.006;36.180;2023-04-15T14:33:02;10.30;;;3.50;;
54665;SDS011;40566;50.006;36.180;2023-04-15T14:38:03;10.20;;;3.40;;
54665;SDS011;40566;50.006;36.180;2023-04-15T14:43:05;11.02;;;4.43;;
54665;SDS011;40566;50.006;36.180;2023-04-15T14:48:05;12.45;;;5.70;;
54665;SDS011;40566;50.006;36.180;2023-04-15T14:53:09;11.40;;;4.07;;
54665;SDS011;40566;50.006;36.180;2023-04-15T14:58:09;11.98;;;4.80;;
54665;SDS011;40566;50.006;36.180;2023-04-15T15:03:10;8.38;;;3.95;;
54665;SDS011;40566;50.006;36.180;2023-04-15T15:08:14;9.88;;;4.50;;
54665;SDS011;40566;50.006;36.180;2023-04-15T15:13:15;9.25;;;3.30;;
54665;SDS011;40566;50.006;36.180;2023-04-15T15:18:17;14.38;;;3.65;;
54665;SDS011;40566;50.006;36.180;2023-04-15T15:23:18;14.20;;;3.92;;
54665;SDS011;40566;50.006;36.180;2023-04-15T15:28:18;9.25;;;3.67;;
54665;SDS011;40566;50.006;36.180;2023-04-15T15:33:21;8.30;;;3.95;;
54665;SDS011;40566;50.006;36.180;2023-04-15T15:38:21;11.45;;;4.43;;
54665;SDS011;40566;50.006;36.180;2023-04-15T15:43:22;10.00;;;4.20;;
54665;SDS011;40566;50.006;36.180;2023-04-15T15:48:22;8.65;;;3.65;;
54665;SDS011;40566;50.006;36.180;2023-04-15T15:53:23;8.52;;;4.00;;
54665;SDS011;40566;50.006;36.180;2023-04-15T15:58:25;11.30;;;3.97;;
54665;SDS011;40566;50.006;36.180;2023-04-15T16:03:26;10.07;;;4.10;;
54665;SDS011;40566;50.006;36.180;2023-04-15T16:08:26;12.27;;;5.68;;
54665;SDS011;40566;50.006;36.180;2023-04-15T16:13:27;13.00;;;4.32;;
54665;SDS011;40566;50.006;36.180;2023-04-15T16:18:27;9.25;;;4.35;;
54665;SDS011;40566;50.006;36.180;2023-04-15T16:23:28;8.27;;;4.25;;
54665;SDS011;40566;50.006;36.180;2023-04-15T16:28:30;10.77;;;4.30;;
54665;SDS011;40566;50.006;36.180;2023-04-15T16:33:31;15.35;;;5.45;;
54665;SDS011;40566;50.006;36.180;2023-04-15T16:38:31;11.18;;;5.18;;
54665;SDS011;40566;50.006;36.180;2023-04-15T16:43:32;13.45;;;5.43;;
54665;SDS011;40566;50.006;36.180;2023-04-15T16:48:32;10.93;;;4.82;;
54665;SDS011;40566;50.006;36.180;2023-04-15T16:53:33;26.33;;;10.70;;
54665;SDS011;40566;50.006;36.180;2023-04-15T16:58:34;11.63;;;4.72;;
54665;SDS011;40566;50.006;36.180;2023-04-15T17:03:35;9.95;;;4.28;;
54665;SDS011;40566;50.006;36.180;2023-04-15T17:08:35;10.13;;;4.40;;
54665;SDS011;40566;50.006;36.180;2023-04-15T17:13:36;11.68;;;4.65;;
54665;SDS011;40566;50.006;36.180;2023-04-15T17:18:37;13.43;;;4.88;;
54665;SDS011;40566;50.006;36.180;2023-04-15T17:23:38;13.68;;;4.60;;
54665;SDS011;40566;50.006;36.180;2023-04-15T17:28:39;10.90;;;4.32;;
54665;SDS011;40566;50.006;36.180;2023-04-15T17:33:39;10.30;;;4.18;;
54665;SDS011;40566;50.006;36.180;2023-04-15T17:38:42;17.15;;;4.63;;
54665;SDS011;40566;50.006;36.180;2023-04-15T17:43:44;10.88;;;4.18;;
54665;SDS011;40566;50.006;36.180;2023-04-15T17:48:45;11.95;;;3.88;;
54665;SDS011;40566;50.006;36.180;2023-04-15T17:53:46;12.52;;;4.43;;
54665;SDS011;40566;50.006;36.180;2023-04-15T17:58:47;8.90;;;3.95;;
54665;SDS011;40566;50.006;36.180;2023-04-15T18:03:48;18.10;;;4.85;;
54665;SDS011;40566;50.006;36.180;2023-04-15T18:08:48;8.43;;;2.60;;
54665;SDS011;40566;50.006;36.180;2023-04-15T18:13:49;13.73;;;4.95;;
54665;SDS011;40566;50.006;36.180;2023-04-15T18:18:50;10.73;;;5.13;;
54665;SDS011;40566;50.006;36.180;2023-04-15T18:23:51;12.50;;;4.93;;
54665;SDS011;40566;50.006;36.180;2023-04-15T18:28:52;12.35;;;4.25;;
54665;SDS011;40566;50.006;36.180;2023-04-15T18:33:55;7.78;;;2.28;;
54665;SDS011;40566;50.006;36.180;2023-04-15T18:38:56;11.05;;;3.42;;
54665;SDS011;40566;50.006;36.180;2023-04-15T18:43:56;10.80;;;3.90;;
54665;SDS011;40566;50.006;36.180;2023-04-15T18:48:57;11.27;;;4.15;;
54665;SDS011;40566;50.006;36.180;2023-04-15T18:53:58;8.95;;;4.20;;
54665;SDS011;40566;50.006;36.180;2023-04-15T18:58:58;12.75;;;3.75;;
54665;SDS011;40566;50.006;36.180;2023-04-15T19:03:59;7.25;;;2.30;;
54665;SDS011;40566;50.006;36.180;2023-04-15T19:09:00;9.43;;;4.10;;
54665;SDS011;40566;50.006;36.180;2023-04-15T19:14:01;9.48;;;3.95;;
54665;SDS011;40566;50.006;36.180;2023-04-15T19:19:02;8.90;;;3.90;;
54665;SDS011;40566;50.006;36.180;2023-04-15T19:24:02;9.02;;;3.83;;
54665;SDS011;40566;50.006;36.180;2023-04-15T19:29:03;5.40;;;2.00;;
54665;SDS011;40566;50.006;36.180;2023-04-15T19:34:04;12.23;;;3.80;;
54665;SDS011;40566;50.006;36.180;2023-04-15T19:39:04;8.80;;;2.42;;
54665;SDS011;40566;50.006;36.180;2023-04-15T19:44:05;10.65;;;3.83;;
54665;SDS011;40566;50.006;36.180;2023-04-15T19:49:06;10.18;;;4.00;;
54665;SDS011;40566;50.006;36.180;2023-04-15T19:54:06;5.05;;;1.98;;
54665;SDS011;40566;50.006;36.180;2023-04-15T19:59:07;9.93;;;3.65;;
54665;SDS011;40566;50.006;36.180;2023-04-15T20:04:08;9.88;;;3.55;;
54665;SDS011;40566;50.006;36.180;2023-04-15T20:09:09;4.18;;;1.92;;
54665;SDS011;40566;50.006;36.180;2023-04-15T20:14:10;8.48;;;2.72;;
54665;SDS011;40566;50.006;36.180;2023-04-15T20:19:10;5.40;;;2.00;;
54665;SDS011;40566;50.006;36.180;2023-04-15T20:24:11;8.70;;;2.50;;
54665;SDS011;40566;50.006;36.180;2023-04-15T20:29:12;5.97;;;2.08;;
54665;SDS011;40566;50.006;36.180;2023-04-15T20:34:12;7.95;;;2.00;;
54665;SDS011;40566;50.006;36.180;2023-04-15T20:39:13;5.13;;;2.15;;
54665;SDS011;40566;50.006;36.180;2023-04-15T20:44:14;8.20;;;2.33;;
54665;SDS011;40566;50.006;36.180;2023-04-15T20:49:15;6.13;;;2.42;;
54665;SDS011;40566;50.006;36.180;2023-04-15T20:54:15;7.75;;;1.70;;
54665;SDS011;40566;50.006;36.180;2023-04-15T20:59:17;8.35;;;3.50;;
54665;SDS011;40566;50.006;36.180;2023-04-15T21:04:18;6.25;;;2.08;;
54665;SDS011;40566;50.006;36.180;2023-04-15T21:09:21;4.47;;;1.80;;
54665;SDS011;40566;50.006;36.180;2023-04-15T21:14:21;7.28;;;3.10;;
54665;SDS011;40566;50.006;36.180;2023-04-15T21:19:22;5.72;;;2.28;;
54665;SDS011;40566;50.006;36.180;2023-04-15T21:24:22;3.72;;;1.73;;
54665;SDS011;40566;50.006;36.180;2023-04-15T21:29:24;9.20;;;1.98;;
54665;SDS011;40566;50.006;36.180;2023-04-15T21:34:25;7.00;;;1.83;;
54665;SDS011;40566;50.006;36.180;2023-04-15T21:39:25;3.88;;;1.92;;
54665;SDS011;40566;50.006;36.180;2023-04-15T21:44:26;10.45;;;2.65;;
54665;SDS011;40566;50.006;36.180;2023-04-15T21:49:27;6.07;;;1.75;;
54665;SDS011;40566;50.006;36.180;2023-04-15T21:54:28;4.50;;;1.95;;
54665;SDS011;40566;50.006;36.180;2023-04-15T21:59:30;13.93;;;2.38;;
54665;SDS011;40566;50.006;36.180;2023-04-15T22:04:30;6.82;;;2.72;;
54665;SDS011;40566;50.006;36.180;2023-04-15T22:09:31;5.40;;;2.33;;
54665;SDS011;40566;50.006;36.180;2023-04-15T22:14:32;6.50;;;2.05;;
54665;SDS011;40566;50.006;36.180;2023-04-15T22:19:32;6.30;;;2.22;;
54665;SDS011;40566;50.006;36.180;2023-04-15T22:24:33;5.00;;;1.52;;
54665;SDS011;40566;50.006;36.180;2023-04-15T22:29:35;4.28;;;2.10;;
54665;SDS011;40566;50.006;36.180;2023-04-15T22:34:36;5.13;;;1.95;;
54665;SDS011;40566;50.006;36.180;2023-04-15T22:39:38;7.28;;;2.28;;
54665;SDS011;40566;50.006;36.180;2023-04-15T22:44:38;6.90;;;2.20;;
54665;SDS011;40566;50.006;36.180;2023-04-15T22:49:39;7.85;;;2.28;;
54665;SDS011;40566;50.006;36.180;2023-04-15T22:54:40;6.15;;;1.77;;
54665;SDS011;40566;50.006;36.180;2023-04-15T22:59:41;9.07;;;3.53;;
54665;SDS011;40566;50.006;36.180;2023-04-15T23:04:41;6.15;;;1.85;;
54665;SDS011;40566;50.006;36.180;2023-04-15T23:09:42;9.27;;;2.58;;
54665;SDS011;40566;50.006;36.180;2023-04-15T23:14:42;4.32;;;1.60;;
54665;SDS011;40566;50.006;36.180;2023-04-15T23:19:43;9.88;;;2.08;;
54665;SDS011;40566;50.006;36.180;2023-04-15T23:24:43;8.13;;;1.90;;
54665;SDS011;40566;50.006;36.180;2023-04-15T23:29:44;3.63;;;1.40;;
54665;SDS011;40566;50.006;36.180;2023-04-15T23:34:45;5.95;;;2.90;;
54665;SDS011;40566;50.006;36.180;2023-04-15T23:39:45;5.30;;;2.20;;
54665;SDS011;40566;50.006;36.180;2023-04-15T23:44:46;6.30;;;2.13;;
54665;SDS011;40566;50.006;36.180;2023-04-15T23:49:46;4.63;;;1.70;;
54665;SDS011;40566;50.006;36.180;2023-04-15T23:54:47;7.30;;;2.15;;
54665;SDS011;40566;50.006;36.180;2023-04-15T23:59:47;4.72;;;1.90;;
